Time;durP1;ratioP1;P1;durP2;ratioP2;P2;SDS_P1;SDS_P2;PMS_P1;PMS_P2;Temp;Humidity;BMP_temperature;BMP_pressure;BME280_temperature;BME280_humidity;BME280_pressure;Samples;Min_cycle;Max_cycle;Signal;HPM_P1;HPM_P2
2021/08/05 00:01:22;;;;;;;2.58;1.92;;;18.90;99.90;;;;;;5074926;28;20028;-84
2021/08/05 00:03:48;;;;;;;3.60;2.40;;;18.90;99.90;;;;;;5087121;28;20028;-84
2021/08/05 00:06:14;;;;;;;3.15;2.28;;;18.80;99.90;;;;;;5088746;28;20105;-84
2021/08/05 00:08:40;;;;;;;4.35;2.40;;;18.80;99.90;;;;;;5080405;28;20036;-85
2021/08/05 00:11:06;;;;;;;2.22;2.00;;;18.80;99.90;;;;;;5081260;28;20062;-83
2021/08/05 00:13:32;;;;;;;3.13;2.17;;;18.80;99.90;;;;;;5073405;28;20020;-84
2021/08/05 00:15:59;;;;;;;3.08;2.42;;;18.80;99.90;;;;;;5085761;28;20025;-84
2021/08/05 00:18:25;;;;;;;4.03;2.38;;;18.80;99.90;;;;;;5075733;28;20032;-83
2021/08/05 00:20:53;;;;;;;3.53;2.75;;;18.80;99.90;;;;;;5078204;28;20044;-84
2021/08/05 00:23:19;;;;;;;3.10;2.42;;;18.80;99.90;;;;;;5082896;28;20123;-83
2021/08/05 00:25:45;;;;;;;2.67;2.17;;;18.80;99.90;;;;;;5072378;28;20043;-84
2021/08/05 00:28:11;;;;;;;3.97;2.45;;;18.80;99.90;;;;;;5084318;28;20774;-85
2021/08/05 00:30:37;;;;;;;2.40;2.15;;;18.80;99.90;;;;;;5077360;28;20549;-84
2021/08/05 00:33:04;;;;;;;4.18;2.90;;;18.80;99.90;;;;;;5086296;28;20028;-84
2021/08/05 00:35:30;;;;;;;4.22;2.58;;;18.70;99.90;;;;;;5089322;28;20026;-84
2021/08/05 00:37:56;;;;;;;3.58;2.55;;;18.70;99.90;;;;;;5088265;28;20085;-84
2021/08/05 00:40:23;;;;;;;3.85;3.08;;;18.70;99.90;;;;;;5075163;28;20020;-84
2021/08/05 00:42:50;;;;;;;4.47;3.15;;;18.60;99.90;;;;;;5078920;28;20116;-84
2021/08/05 00:45:16;;;;;;;3.47;2.63;;;18.60;99.90;;;;;;5082743;28;20089;-84
2021/08/05 00:47:42;;;;;;;3.38;2.50;;;18.60;99.90;;;;;;5073718;28;20052;-84
2021/08/05 00:50:09;;;;;;;3.00;2.60;;;18.50;99.90;;;;;;5084707;28;20028;-84
2021/08/05 00:52:36;;;;;;;3.42;2.75;;;18.50;99.90;;;;;;5076893;28;20028;-84
2021/08/05 00:55:03;;;;;;;4.07;2.80;;;18.50;99.90;;;;;;5077131;28;20136;-84
2021/08/05 00:57:29;;;;;;;3.78;3.10;;;18.50;99.90;;;;;;5084178;28;20028;-84
2021/08/05 00:59:56;;;;;;;2.95;2.50;;;18.40;99.90;;;;;;5071950;28;20042;-83
2021/08/05 01:02:25;;;;;;;3.22;2.60;;;18.30;99.90;;;;;;5085800;28;20375;-83
2021/08/05 01:04:55;;;;;;;2.70;2.33;;;18.30;99.90;;;;;;5082115;28;20061;-85
2021/08/05 01:07:23;;;;;;;4.07;2.70;;;18.30;99.90;;;;;;5093069;28;20029;-86
2021/08/05 01:10:11;;;;;;;3.67;2.80;;;18.30;99.90;;;;;;5093050;28;20040;-85
2021/08/05 01:12:56;;;;;;;4.47;2.72;;;18.20;99.90;;;;;;5092929;28;20024;-85
2021/08/05 01:15:26;;;;;;;4.10;2.70;;;18.20;99.90;;;;;;5090631;28;20392;-85
2021/08/05 01:18:04;;;;;;;2.38;2.17;;;18.20;99.90;;;;;;5093103;28;20464;-87
2021/08/05 01:20:31;;;;;;;4.13;2.92;;;18.10;99.90;;;;;;5091583;28;20040;-86
2021/08/05 01:23:16;;;;;;;4.63;3.00;;;18.10;99.90;;;;;;5093001;28;20043;-87
2021/08/05 01:25:43;;;;;;;4.00;3.03;;;18.10;99.90;;;;;;5092097;28;20524;-85
2021/08/05 01:28:11;;;;;;;3.28;2.70;;;18.00;99.90;;;;;;5092610;28;20115;-87
2021/08/05 01:30:41;;;;;;;4.03;3.20;;;18.00;99.90;;;;;;5092532;28;20017;-86
2021/08/05 01:33:09;;;;;;;4.30;3.13;;;17.90;99.90;;;;;;5092843;28;20475;-87
2021/08/05 01:35:35;;;;;;;3.55;3.05;;;17.90;99.90;;;;;;5092974;28;20028;-86
2021/08/05 01:38:02;;;;;;;5.78;3.50;;;17.90;99.90;;;;;;5094162;28;20357;-84
2021/08/05 01:40:29;;;;;;;4.57;3.30;;;17.80;99.90;;;;;;5092452;28;20024;-85
2021/08/05 01:42:59;;;;;;;4.32;3.15;;;17.80;99.90;;;;;;5093012;28;20032;-86
2021/08/05 01:45:25;;;;;;;4.35;3.00;;;17.80;99.90;;;;;;5094555;28;20030;-87
2021/08/05 01:47:52;;;;;;;4.28;3.25;;;17.80;99.90;;;;;;5093017;28;20020;-87
2021/08/05 01:50:18;;;;;;;4.07;3.17;;;17.80;99.90;;;;;;5090959;28;20051;-85
2021/08/05 01:52:45;;;;;;;4.20;3.08;;;17.80;99.90;;;;;;5092461;28;20020;-86
2021/08/05 01:55:12;;;;;;;5.20;3.65;;;17.80;99.90;;;;;;5092867;28;20024;-86
2021/08/05 01:57:38;;;;;;;3.80;3.03;;;17.80;99.90;;;;;;5092891;28;20020;-86
2021/08/05 02:00:08;;;;;;;4.15;3.45;;;17.80;99.90;;;;;;5092756;28;20071;-87
2021/08/05 02:02:35;;;;;;;3.88;3.08;;;17.80;99.90;;;;;;5092694;28;20025;-87
2021/08/05 02:05:06;;;;;;;3.42;2.95;;;17.80;99.90;;;;;;5093811;28;20028;-87
2021/08/05 02:07:50;;;;;;;3.30;2.65;;;17.80;99.90;;;;;;5092511;28;20375;-86
2021/08/05 02:10:44;;;;;;;4.78;3.17;;;17.80;99.90;;;;;;5092445;28;20032;-87
2021/08/05 02:13:12;;;;;;;;;;;17.70;99.90;;;;;;5077560;28;20063;-85
2021/08/05 02:15:42;;;;;;;3.65;2.83;;;17.70;99.90;;;;;;5091902;28;19904;-86
2021/08/05 02:18:10;;;;;;;4.30;3.17;;;17.70;99.90;;;;;;5092442;28;20024;-85
2021/08/05 02:20:36;;;;;;;4.10;2.78;;;17.70;99.90;;;;;;5093345;28;20486;-86
2021/08/05 02:23:02;;;;;;;3.85;3.03;;;17.70;99.90;;;;;;5093441;28;20020;-85
2021/08/05 02:25:30;;;;;;;4.45;3.10;;;17.70;99.90;;;;;;5092462;28;20020;-85
2021/08/05 02:27:57;;;;;;;3.47;3.10;;;17.60;99.90;;;;;;5092380;28;20036;-87
2021/08/05 02:30:23;;;;;;;5.72;3.28;;;17.60;99.90;;;;;;5092048;28;20392;-86
2021/08/05 02:32:49;;;;;;;4.28;3.28;;;17.60;99.90;;;;;;5092225;28;20115;-85
2021/08/05 02:35:16;;;;;;;4.93;3.42;;;17.60;99.90;;;;;;5091648;28;20696;-86
2021/08/05 02:37:43;;;;;;;3.60;3.10;;;17.60;99.90;;;;;;5075667;28;20483;-86
2021/08/05 02:40:11;;;;;;;3.85;3.13;;;17.60;99.90;;;;;;5091648;28;20055;-86
2021/08/05 02:42:38;;;;;;;4.28;3.22;;;17.50;99.90;;;;;;5091940;28;20380;-87
2021/08/05 02:45:05;;;;;;;3.83;3.08;;;17.50;99.90;;;;;;5091980;28;20501;-86
2021/08/05 02:47:32;;;;;;;4.13;3.03;;;17.50;99.90;;;;;;5093251;28;20035;-87
2021/08/05 02:50:00;;;;;;;3.92;2.88;;;17.50;99.90;;;;;;5093188;28;20495;-86
2021/08/05 02:52:26;;;;;;;3.92;2.95;;;17.50;99.90;;;;;;5092176;28;20110;-86
2021/08/05 02:54:54;;;;;;;4.53;2.97;;;17.50;99.90;;;;;;5091897;28;20443;-85
2021/08/05 02:57:20;;;;;;;4.53;3.25;;;17.50;99.90;;;;;;5091969;28;20670;-86
2021/08/05 02:59:48;;;;;;;5.25;3.78;;;17.50;99.90;;;;;;5091951;28;20085;-87
2021/08/05 03:02:14;;;;;;;3.35;3.05;;;17.50;99.90;;;;;;5092272;28;20035;-86
2021/08/05 03:04:40;;;;;;;4.63;3.38;;;17.50;99.90;;;;;;5091947;28;20483;-86
2021/08/05 03:07:08;;;;;;;4.88;2.97;;;17.50;99.90;;;;;;5091668;28;20049;-87
2021/08/05 03:09:34;;;;;;;3.47;2.70;;;17.50;99.90;;;;;;5091582;28;20555;-84
2021/08/05 03:12:01;;;;;;;5.38;3.58;;;17.50;99.90;;;;;;5091728;28;20158;-86
2021/08/05 03:14:27;;;;;;;4.03;3.33;;;17.50;99.90;;;;;;5092011;28;20136;-87
2021/08/05 03:16:53;;;;;;;3.47;3.10;;;17.50;99.90;;;;;;5091720;28;20042;-86
2021/08/05 03:19:19;;;;;;;4.38;3.22;;;17.50;99.90;;;;;;5091253;28;20058;-86
2021/08/05 03:21:45;;;;;;;4.30;3.20;;;17.50;99.90;;;;;;5093134;28;20028;-86
2021/08/05 03:24:11;;;;;;;4.03;3.10;;;17.50;99.90;;;;;;5091840;28;20026;-85
2021/08/05 03:26:37;;;;;;;4.43;3.53;;;17.50;99.90;;;;;;5091995;28;20086;-86
2021/08/05 03:29:03;;;;;;;4.40;3.50;;;17.50;99.90;;;;;;5091613;28;20082;-86
2021/08/05 03:31:29;;;;;;;4.85;3.67;;;17.50;99.90;;;;;;5091867;28;20103;-86
2021/08/05 03:33:55;;;;;;;5.70;3.75;;;17.50;99.90;;;;;;5096467;28;20081;-86
2021/08/05 03:36:21;;;;;;;4.82;3.67;;;17.40;99.90;;;;;;5095124;28;20465;-86
2021/08/05 03:38:47;;;;;;;4.85;3.92;;;17.40;99.90;;;;;;5095432;28;20454;-85
2021/08/05 03:41:13;;;;;;;5.07;3.47;;;17.40;99.90;;;;;;5095251;28;20046;-86
2021/08/05 03:43:39;;;;;;;3.97;3.40;;;17.40;99.90;;;;;;5096344;28;20051;-85
2021/08/05 03:46:05;;;;;;;4.22;3.83;;;17.40;99.90;;;;;;5096357;28;20059;-86
2021/08/05 03:48:31;;;;;;;4.63;3.72;;;17.40;99.90;;;;;;5095404;28;20028;-85
2021/08/05 03:50:58;;;;;;;5.22;3.95;;;17.40;99.90;;;;;;5095311;28;20409;-86
2021/08/05 03:53:26;;;;;;;5.32;3.92;;;17.40;99.90;;;;;;5096385;28;20111;-86
2021/08/05 03:55:52;;;;;;;4.90;4.10;;;17.40;99.90;;;;;;5095196;28;20035;-86
2021/08/05 03:58:18;;;;;;;4.68;3.75;;;17.40;99.90;;;;;;5094899;28;20607;-86
2021/08/05 04:00:44;;;;;;;6.88;4.10;;;17.40;99.90;;;;;;5094955;28;20024;-85
2021/08/05 04:03:10;;;;;;;6.05;3.95;;;17.40;99.90;;;;;;5094905;28;20487;-85
2021/08/05 04:05:36;;;;;;;5.38;4.13;;;17.30;99.90;;;;;;5094678;28;20491;-86
2021/08/05 04:08:02;;;;;;;4.80;3.38;;;17.40;99.90;;;;;;5095012;28;20510;-85
2021/08/05 04:10:28;;;;;;;4.43;3.45;;;17.40;99.90;;;;;;5095895;28;20055;-86
2021/08/05 04:12:53;;;;;;;4.90;3.85;;;17.40;99.90;;;;;;5094628;28;20039;-86
2021/08/05 04:15:21;;;;;;;6.35;4.28;;;17.40;99.90;;;;;;5094699;28;20024;-85
2021/08/05 04:17:46;;;;;;;5.45;4.05;;;17.40;99.90;;;;;;5096390;28;20028;-86
2021/08/05 04:20:13;;;;;;;4.53;3.65;;;17.30;99.90;;;;;;5093877;28;20052;-85
2021/08/05 04:22:40;;;;;;;5.30;4.18;;;17.30;99.90;;;;;;5094051;28;20050;-86
2021/08/05 04:25:07;;;;;;;5.05;4.10;;;17.30;99.90;;;;;;5094604;28;20490;-86
2021/08/05 04:27:33;;;;;;;4.43;3.85;;;17.20;99.90;;;;;;5094444;28;20442;-85
2021/08/05 04:29:59;;;;;;;5.65;4.18;;;17.20;99.90;;;;;;5095597;28;20099;-85
2021/08/05 04:32:25;;;;;;;5.45;3.72;;;17.20;99.90;;;;;;5094246;28;20090;-87
2021/08/05 04:34:52;;;;;;;5.18;3.90;;;17.20;99.90;;;;;;5092230;28;20028;-85
2021/08/05 04:37:20;;;;;;;4.47;3.58;;;17.20;99.90;;;;;;5093551;28;20030;-86
2021/08/05 04:39:45;;;;;;;4.57;3.95;;;17.30;99.90;;;;;;5092992;28;20028;-86
2021/08/05 04:42:11;;;;;;;5.47;4.50;;;17.30;99.90;;;;;;5093443;28;20072;-85
2021/08/05 04:44:37;;;;;;;5.10;3.90;;;17.30;99.90;;;;;;5092808;28;20081;-85
2021/08/05 04:47:04;;;;;;;5.25;4.10;;;17.30;99.90;;;;;;5092931;28;20027;-85
2021/08/05 04:49:30;;;;;;;5.05;3.83;;;17.30;99.90;;;;;;5091980;28;20035;-85
2021/08/05 04:51:56;;;;;;;5.90;4.03;;;17.40;99.90;;;;;;5093003;28;20109;-86
2021/08/05 04:54:22;;;;;;;5.68;4.55;;;17.40;99.90;;;;;;5092015;28;20071;-84
2021/08/05 04:56:48;;;;;;;4.63;3.85;;;17.40;99.90;;;;;;5091809;28;20020;-86
2021/08/05 04:59:14;;;;;;;4.70;3.65;;;17.40;99.90;;;;;;5093289;28;20038;-85
2021/08/05 05:01:41;;;;;;;4.85;4.13;;;17.40;99.90;;;;;;5091637;28;20024;-86
2021/08/05 05:04:06;;;;;;;4.90;4.07;;;17.40;99.90;;;;;;5091316;28;20016;-85
2021/08/05 05:06:32;;;;;;;4.88;3.90;;;17.40;99.90;;;;;;5090306;28;20031;-84
2021/08/05 05:09:05;;;;;;;4.85;3.80;;;17.40;99.90;;;;;;5088177;28;20047;-84
2021/08/05 05:11:31;;;;;;;4.97;4.20;;;17.40;99.90;;;;;;5091457;28;20608;-85
2021/08/05 05:13:58;;;;;;;5.22;3.80;;;17.40;99.90;;;;;;5091475;28;20107;-86
2021/08/05 05:16:30;;;;;;;4.10;3.25;;;17.50;99.90;;;;;;5093495;28;20101;-85
2021/08/05 05:18:58;;;;;;;4.73;3.77;;;17.50;99.90;;;;;;5093256;28;20032;-87
2021/08/05 05:21:30;;;;;;;4.85;3.67;;;17.50;99.90;;;;;;5093666;28;20289;-85
2021/08/05 05:23:56;;;;;;;6.30;3.50;;;17.60;99.90;;;;;;5094597;28;20028;-86
2021/08/05 05:26:22;;;;;;;5.22;3.85;;;17.60;99.90;;;;;;5093272;28;20027;-86
2021/08/05 05:28:48;;;;;;;6.70;4.85;;;17.60;99.90;;;;;;5094232;28;20067;-85
2021/08/05 05:31:14;;;;;;;6.10;4.47;;;17.60;99.90;;;;;;5093192;28;20044;-86
2021/08/05 05:33:41;;;;;;;5.15;4.03;;;17.60;99.90;;;;;;5093075;28;20035;-86
2021/08/05 05:36:09;;;;;;;6.07;4.18;;;17.70;99.90;;;;;;5094082;28;20039;-85
2021/08/05 05:38:37;;;;;;;5.13;4.28;;;17.70;99.90;;;;;;5093022;28;20063;-86
2021/08/05 05:41:05;;;;;;;5.28;4.32;;;17.70;99.90;;;;;;5092334;28;20020;-85
2021/08/05 05:43:31;;;;;;;5.90;4.32;;;17.70;99.90;;;;;;5093829;28;20028;-86
2021/08/05 05:45:57;;;;;;;5.40;4.40;;;17.70;99.90;;;;;;5094225;28;20028;-85
2021/08/05 05:48:25;;;;;;;5.25;4.60;;;17.70;99.90;;;;;;5092746;28;20036;-85
2021/08/05 05:50:53;;;;;;;5.95;4.78;;;17.80;99.90;;;;;;5092796;28;20027;-86
2021/08/05 05:53:23;;;;;;;6.00;4.95;;;17.80;99.90;;;;;;5092817;28;20035;-87
2021/08/05 05:55:51;;;;;;;6.53;4.90;;;17.80;99.90;;;;;;5091975;28;20028;-86
2021/08/05 05:58:21;;;;;;;6.32;4.78;;;17.90;99.90;;;;;;5092698;28;20028;-86
2021/08/05 06:00:52;;;;;;;6.85;5.00;;;17.90;99.90;;;;;;5092276;28;20028;-86
2021/08/05 06:03:26;;;;;;;5.40;4.60;;;17.90;99.90;;;;;;5092812;28;20031;-86
2021/08/05 06:05:54;;;;;;;6.05;5.25;;;17.90;99.90;;;;;;5094284;28;20077;-84
2021/08/05 06:08:20;;;;;;;7.25;6.35;;;17.90;99.90;;;;;;5091671;28;20036;-84
2021/08/05 06:10:47;;;;;;;7.28;5.65;;;18.00;99.90;;;;;;5091239;28;20031;-86
2021/08/05 06:13:15;;;;;;;10.00;6.30;;;18.00;99.90;;;;;;5091450;28;20164;-87
2021/08/05 06:15:41;;;;;;;6.55;5.10;;;18.00;99.90;;;;;;5091096;28;20020;-86
2021/08/05 06:18:07;;;;;;;6.30;5.53;;;18.00;99.90;;;;;;5090264;28;20016;-85
2021/08/05 06:20:37;;;;;;;7.53;5.35;;;18.00;99.90;;;;;;5091818;28;20048;-85
2021/08/05 06:23:08;;;;;;;7.53;5.68;;;18.00;99.90;;;;;;5092411;28;20024;-86
2021/08/05 06:25:36;;;;;;;8.48;5.22;;;18.10;99.90;;;;;;5094181;28;20410;-86
2021/08/05 06:28:03;;;;;;;9.60;6.15;;;18.10;99.90;;;;;;5093203;28;20016;-86
2021/08/05 06:30:32;;;;;;;7.00;6.07;;;18.10;99.90;;;;;;5092297;28;20030;-87
2021/08/05 06:32:58;;;;;;;11.68;7.00;;;18.10;99.90;;;;;;5092162;28;20020;-86
2021/08/05 06:35:29;;;;;;;7.28;5.68;;;18.10;99.90;;;;;;5093284;28;20070;-86
2021/08/05 06:37:57;;;;;;;8.20;5.82;;;18.20;99.90;;;;;;5092306;28;20020;-85
2021/08/05 06:40:27;;;;;;;10.93;5.97;;;18.20;99.90;;;;;;5092110;28;20016;-86
2021/08/05 06:42:58;;;;;;;7.40;6.07;;;18.20;99.90;;;;;;5091931;28;20020;-85
2021/08/05 06:45:28;;;;;;;7.90;6.75;;;18.30;99.90;;;;;;5089527;28;20020;-86
2021/08/05 06:48:01;;;;;;;6.32;5.63;;;18.30;99.90;;;;;;5086636;28;20070;-86
2021/08/05 06:50:30;;;;;;;6.30;5.23;;;18.30;99.90;;;;;;5092203;28;20414;-85
2021/08/05 06:52:56;;;;;;;6.60;4.97;;;18.30;99.90;;;;;;5092419;28;20028;-85
2021/08/05 06:55:25;;;;;;;6.25;5.57;;;18.40;99.90;;;;;;5092154;28;20589;-85
2021/08/05 06:57:54;;;;;;;6.03;5.25;;;18.40;99.90;;;;;;5091839;28;20016;-85
2021/08/05 07:00:25;;;;;;;8.23;6.68;;;18.40;99.90;;;;;;5088402;28;20036;-86
2021/08/05 07:02:56;;;;;;;7.65;5.88;;;18.50;99.90;;;;;;5087707;28;20024;-86
2021/08/05 07:05:33;;;;;;;7.22;5.68;;;18.50;99.90;;;;;;5093095;28;20391;-85
2021/08/05 07:08:03;;;;;;;7.38;6.00;;;18.60;99.90;;;;;;5093561;28;20028;-85
2021/08/05 07:10:36;;;;;;;7.40;6.18;;;18.60;99.90;;;;;;5095592;28;20023;-85
2021/08/05 07:13:09;;;;;;;6.83;6.13;;;18.70;99.90;;;;;;5077921;28;20028;-84
2021/08/05 07:15:36;;;;;;;6.97;6.25;;;18.80;99.90;;;;;;5075115;28;20283;-84
2021/08/05 07:18:05;;;;;;;7.03;5.60;;;18.80;99.90;;;;;;5091346;28;20031;-86
2021/08/05 07:20:35;;;;;;;6.72;5.70;;;18.90;99.90;;;;;;5094995;28;20044;-85
2021/08/05 07:23:01;;;;;;;6.70;5.75;;;18.90;99.90;;;;;;5095363;28;20055;-85
2021/08/05 07:25:28;;;;;;;8.65;6.32;;;18.90;99.90;;;;;;5094441;28;20016;-85
2021/08/05 07:28:01;;;;;;;8.07;6.43;;;18.90;99.90;;;;;;5095046;28;20114;-86
2021/08/05 07:30:30;;;;;;;12.70;9.95;;;19.00;99.90;;;;;;5096933;28;20103;-86
2021/08/05 07:33:00;;;;;;;12.52;10.13;;;19.00;99.90;;;;;;5095331;28;20020;-85
2021/08/05 07:35:30;;;;;;;11.25;9.70;;;19.00;99.90;;;;;;5095267;28;20127;-87
2021/08/05 07:38:03;;;;;;;9.30;8.15;;;19.00;99.90;;;;;;5096569;28;20028;-87
2021/08/05 07:40:46;;;;;;;7.72;6.50;;;19.00;99.90;;;;;;5095124;28;20027;-85
2021/08/05 07:43:15;;;;;;;7.72;6.50;;;19.00;99.90;;;;;;5095251;28;20119;-86
2021/08/05 07:45:44;;;;;;;8.73;7.80;;;19.20;99.90;;;;;;5095309;28;20028;-85
2021/08/05 07:48:14;;;;;;;8.38;7.45;;;19.20;99.90;;;;;;5096479;28;20032;-86
2021/08/05 07:50:46;;;;;;;7.80;7.00;;;19.30;99.90;;;;;;5095128;28;20082;-86
2021/08/05 07:53:12;;;;;;;8.67;7.10;;;19.40;99.90;;;;;;5095340;28;20020;-86
2021/08/05 07:55:41;;;;;;;8.77;7.35;;;19.50;99.90;;;;;;5095084;28;20081;-85
2021/08/05 07:58:08;;;;;;;9.02;8.13;;;19.60;99.90;;;;;;5095299;28;20478;-83
2021/08/05 08:00:35;;;;;;;8.80;7.68;;;19.60;99.90;;;;;;5094949;28;20114;-85
2021/08/05 08:03:10;;;;;;;9.48;7.95;;;19.70;99.90;;;;;;5094966;28;20028;-84
2021/08/05 08:05:40;;;;;;;10.13;8.43;;;19.70;99.90;;;;;;5094818;28;20456;-84
2021/08/05 08:08:18;;;;;;;8.70;7.13;;;19.80;99.90;;;;;;5094277;28;20024;-84
2021/08/05 08:10:54;;;;;;;8.57;7.68;;;19.90;99.90;;;;;;5094069;28;20521;-84
2021/08/05 08:13:33;;;;;;;8.07;6.95;;;20.00;99.90;;;;;;5075348;28;20456;-84
2021/08/05 08:16:07;;;;;;;8.43;7.53;;;20.10;99.90;;;;;;5074236;28;20055;-85
2021/08/05 08:18:53;;;;;;;8.73;7.38;;;20.30;99.90;;;;;;5075132;28;20043;-84
2021/08/05 08:21:38;;;;;;;8.23;7.38;;;20.40;99.90;;;;;;5071795;28;20052;-84
2021/08/05 08:24:10;;;;;;;8.95;7.85;;;20.50;99.90;;;;;;5068278;28;20032;-84
2021/08/05 08:26:55;;;;;;;9.68;8.30;;;20.60;99.90;;;;;;5074230;28;20033;-85
2021/08/05 08:29:33;;;;;;;9.80;8.13;;;20.70;99.90;;;;;;5074195;28;20028;-85
2021/08/05 08:32:15;;;;;;;10.68;7.82;;;20.80;99.90;;;;;;5073436;28;20029;-84
2021/08/05 08:34:54;;;;;;;10.07;8.43;;;21.00;99.90;;;;;;5073196;28;20033;-84
2021/08/05 08:37:33;;;;;;;9.32;7.80;;;21.20;99.90;;;;;;5075411;28;20105;-85
2021/08/05 08:40:23;;;;;;;;;;;;;;;;;;;;;
2021/08/05 08:43:07;;;;;;;11.63;10.02;;;21.60;99.90;;;;;;5074896;28;20020;-84
2021/08/05 08:45:39;;;;;;;12.98;10.27;;;21.80;99.90;;;;;;5074006;28;20064;-84
2021/08/05 08:48:07;;;;;;;9.85;8.85;;;22.00;99.90;;;;;;5072665;28;20036;-84
2021/08/05 08:50:41;;;;;;;12.90;11.60;;;22.20;99.90;;;;;;5073690;28;20025;-84
2021/08/05 08:53:15;;;;;;;10.43;8.18;;;22.30;99.90;;;;;;5074041;28;20087;-85
2021/08/05 08:55:47;;;;;;;10.40;8.80;;;22.40;99.90;;;;;;5074772;28;20052;-85
2021/08/05 08:58:17;;;;;;;9.55;8.45;;;22.70;99.90;;;;;;5080680;28;20399;-85
2021/08/05 09:00:54;;;;;;;12.75;11.43;;;22.80;99.90;;;;;;5093909;28;20113;-85
2021/08/05 09:03:24;;;;;;;13.40;11.25;;;23.00;99.90;;;;;;5093517;28;20024;-85
2021/08/05 09:05:56;;;;;;;11.45;10.25;;;23.10;99.90;;;;;;5093288;28;20027;-85
2021/08/05 09:08:36;;;;;;;10.68;9.57;;;23.10;99.90;;;;;;5094042;28;20028;-86
2021/08/05 09:11:03;;;;;;;10.77;8.98;;;23.30;99.90;;;;;;5093645;28;20168;-86
2021/08/05 09:13:35;;;;;;;8.80;7.85;;;23.30;99.90;;;;;;5094281;28;20129;-85
2021/08/05 09:16:29;;;;;;;9.02;7.75;;;23.40;99.90;;;;;;5095230;28;20024;-85
2021/08/05 09:19:16;;;;;;;8.35;7.10;;;23.60;99.90;;;;;;5095219;28;20020;-86
2021/08/05 09:22:01;;;;;;;10.07;8.98;;;23.70;99.90;;;;;;5054626;28;20037;-86
2021/08/05 09:24:39;;;;;;;10.68;9.55;;;23.90;99.90;;;;;;5054596;28;20025;-86
2021/08/05 09:27:17;;;;;;;11.35;9.70;;;24.00;99.90;;;;;;5052458;28;20119;-85
2021/08/05 09:29:53;;;;;;;11.18;10.07;;;23.90;99.90;;;;;;5055359;28;20033;-85
2021/08/05 09:32:29;;;;;;;8.77;7.88;;;23.90;99.90;;;;;;5053096;28;20059;-85
2021/08/05 09:35:07;;;;;;;8.38;7.15;;;24.10;99.90;;;;;;5052767;28;20033;-85
2021/08/05 09:37:43;;;;;;;8.55;7.53;;;24.20;99.90;;;;;;5046737;28;20155;-86
2021/08/05 09:40:15;;;;;;;10.85;7.53;;;24.40;99.90;;;;;;5049985;28;20151;-88
2021/08/05 09:42:55;;;;;;;10.38;7.25;;;24.70;99.90;;;;;;5051808;28;20781;-88
2021/08/05 09:45:35;;;;;;;10.75;8.13;;;25.50;99.90;;;;;;5051927;28;20396;-89
2021/08/05 09:48:07;;;;;;;9.65;6.60;;;26.40;99.90;;;;;;5041849;28;20013;-89
2021/08/05 09:50:36;;;;;;;9.18;7.38;;;27.20;99.90;;;;;;5043274;28;20017;-89
2021/08/05 09:53:14;;;;;;;9.35;7.15;;;27.70;99.90;;;;;;5050707;28;20028;-89
2021/08/05 09:55:46;;;;;;;8.60;7.70;;;28.30;99.90;;;;;;5052043;28;20021;-89
2021/08/05 09:58:25;;;;;;;6.50;5.30;;;28.60;99.20;;;;;;5051972;28;20496;-90
2021/08/05 10:00:52;;;;;;;10.95;9.85;;;29.00;98.70;;;;;;5050419;28;20021;-89
2021/08/05 10:03:30;;;;;;;9.65;8.65;;;29.40;95.90;;;;;;5052331;28;20025;-88
2021/08/05 10:06:01;;;;;;;8.73;7.13;;;29.50;94.90;;;;;;5052154;28;20116;-87
2021/08/05 10:08:42;;;;;;;7.95;7.10;;;29.30;95.20;;;;;;5048467;28;20397;-87
2021/08/05 10:11:08;;;;;;;6.75;5.60;;;29.40;94.70;;;;;;5050578;28;20021;-87
2021/08/05 10:13:37;;;;;;;10.18;9.18;;;29.70;94.70;;;;;;5049386;28;20108;-88
2021/08/05 10:16:06;;;;;;;5.82;4.88;;;30.10;93.90;;;;;;5046499;28;20052;-87
2021/08/05 10:18:39;;;;;;;10.05;9.15;;;30.60;93.80;;;;;;5050412;28;20107;-88
2021/08/05 10:21:13;;;;;;;8.70;7.80;;;30.90;92.70;;;;;;5071080;28;20048;-87
2021/08/05 10:23:43;;;;;;;9.70;8.13;;;31.10;92.30;;;;;;5086643;28;20019;-88
2021/08/05 10:26:11;;;;;;;7.65;6.50;;;31.10;91.00;;;;;;5074067;28;20157;-88
2021/08/05 10:28:39;;;;;;;7.72;7.03;;;31.30;90.40;;;;;;5081707;28;20032;-87
2021/08/05 10:31:08;;;;;;;6.57;5.90;;;31.40;89.40;;;;;;5082143;28;20120;-87
2021/08/05 10:33:34;;;;;;;6.10;4.88;;;31.40;89.20;;;;;;5090188;28;20078;-87
2021/08/05 10:36:03;;;;;;;8.25;7.45;;;31.70;88.80;;;;;;5075829;28;20012;-87
2021/08/05 10:38:30;;;;;;;6.60;5.72;;;31.90;87.80;;;;;;5093940;28;20028;-87
2021/08/05 10:41:03;;;;;;;8.43;7.60;;;32.00;86.10;;;;;;5082178;28;20086;-87
2021/08/05 10:43:35;;;;;;;5.50;4.47;;;32.20;83.30;;;;;;5089852;28;20468;-88
2021/08/05 10:46:01;;;;;;;7.63;6.82;;;32.40;83.80;;;;;;5088559;28;20019;-87
2021/08/05 10:48:31;;;;;;;7.25;6.28;;;32.70;81.10;;;;;;5077881;28;20073;-86
2021/08/05 10:50:57;;;;;;;5.38;4.85;;;32.50;78.60;;;;;;5089468;28;20032;-88
2021/08/05 10:53:32;;;;;;;9.45;4.95;;;32.40;79.00;;;;;;5091270;28;20085;-87
2021/08/05 10:56:16;;;;;;;5.30;4.53;;;32.60;79.60;;;;;;5074620;28;20107;-88
2021/08/05 10:59:03;;;;;;;9.40;7.25;;;32.80;78.80;;;;;;5082543;28;20033;-87
2021/08/05 11:01:52;;;;;;;6.63;5.88;;;32.80;76.40;;;;;;5091738;28;20042;-88
2021/08/05 11:04:33;;;;;;;6.07;4.90;;;32.70;75.40;;;;;;5087275;28;20028;-88
2021/08/05 11:07:21;;;;;;;5.05;4.47;;;32.80;75.10;;;;;;5090814;28;20361;-87
2021/08/05 11:09:48;;;;;;;5.30;4.80;;;33.00;75.30;;;;;;5087961;28;20118;-87
2021/08/05 11:12:41;;;;;;;10.15;6.40;;;33.10;74.80;;;;;;5075282;28;20044;-88
2021/08/05 11:15:23;;;;;;;9.15;8.25;;;33.10;71.90;;;;;;5090374;28;20032;-87
2021/08/05 11:18:10;;;;;;;6.00;5.40;;;32.90;70.40;;;;;;5073685;28;20039;-87
2021/08/05 11:20:41;;;;;;;6.25;4.70;;;32.80;71.10;;;;;;5081512;28;20102;-86
2021/08/05 11:26:00;;;;;;;5.85;4.63;;;33.40;72.10;;;;;;5089369;28;20036;-88
2021/08/05 11:28:28;;;;;;;6.70;5.13;;;33.70;71.80;;;;;;5077778;28;20039;-87
2021/08/05 11:31:16;;;;;;;6.13;5.53;;;33.90;71.60;;;;;;5080475;28;20036;-88
2021/08/05 11:33:52;;;;;;;6.57;5.93;;;34.20;71.00;;;;;;5088714;28;20020;-88
2021/08/05 11:36:25;;;;;;;7.20;4.57;;;34.30;69.90;;;;;;5085475;28;20111;-88
2021/08/05 11:38:57;;;;;;;;;;;34.30;70.40;;;;;;5091742;28;20392;-87
2021/08/05 11:42:11;;;;;;;7.80;5.70;;;34.30;69.80;;;;;;5076376;28;19904;-88
2021/08/05 11:44:44;;;;;;;6.00;5.40;;;34.10;69.30;;;;;;5062832;28;20123;-86
2021/08/05 11:47:13;;;;;;;5.15;4.65;;;33.90;70.00;;;;;;5086780;28;20028;-88
2021/08/05 11:49:57;;;;;;;7.05;5.95;;;34.00;69.40;;;;;;5086196;28;20040;-87
2021/08/05 11:52:31;;;;;;;6.15;5.55;;;33.90;67.80;;;;;;5088171;28;20020;-87
2021/08/05 11:55:02;;;;;;;4.72;4.22;;;33.40;68.70;;;;;;5091702;28;20056;-89
2021/08/05 11:57:49;;;;;;;4.95;4.45;;;33.60;68.60;;;;;;5094369;28;20024;-89
2021/08/05 12:00:40;;;;;;;5.07;4.20;;;34.00;68.00;;;;;;5089954;28;20475;-88
2021/08/05 12:03:11;;;;;;;5.68;4.88;;;34.30;68.50;;;;;;5094232;28;20082;-88
2021/08/05 12:05:39;;;;;;;5.18;4.47;;;34.30;66.80;;;;;;5093864;28;20024;-88
2021/08/05 12:08:08;;;;;;;4.47;3.97;;;34.10;65.90;;;;;;5095219;28;20028;-88
2021/08/05 12:10:40;;;;;;;5.45;4.68;;;33.50;66.90;;;;;;5085957;28;20025;-89
2021/08/05 12:13:40;;;;;;;5.75;4.20;;;33.00;67.30;;;;;;5086618;28;20472;-86
2021/08/05 12:16:07;;;;;;;4.10;3.53;;;32.30;67.90;;;;;;5077936;28;20024;-87
2021/08/05 12:18:42;;;;;;;5.75;4.63;;;31.50;69.60;;;;;;5086278;28;20078;-88
2021/08/05 12:21:14;;;;;;;6.38;5.68;;;30.80;70.80;;;;;;5076507;28;20087;-88
2021/08/05 12:23:53;;;;;;;5.22;4.72;;;30.00;71.30;;;;;;5091125;28;20040;-87
2021/08/05 12:26:25;;;;;;;5.13;4.63;;;29.20;72.80;;;;;;5095139;28;20089;-88
2021/08/05 12:28:52;;;;;;;5.95;5.35;;;28.70;75.10;;;;;;5092403;28;20134;-87
2021/08/05 12:31:24;;;;;;;6.40;5.38;;;28.10;76.20;;;;;;5087963;28;20020;-87
2021/08/05 12:33:51;;;;;;;5.28;4.78;;;27.70;77.30;;;;;;5089791;28;20089;-87
2021/08/05 12:36:23;;;;;;;5.65;5.15;;;27.30;78.90;;;;;;5091500;28;20537;-87
2021/08/05 12:39:05;;;;;;;9.38;8.45;;;27.10;79.80;;;;;;5092446;28;20020;-87
2021/08/05 12:41:49;;;;;;;13.18;11.88;;;26.80;81.10;;;;;;5089944;28;20077;-90
2021/08/05 12:44:17;;;;;;;;;;;26.10;89.60;;;;;;5077581;28;20076;-87
2021/08/05 12:46:51;;;;;;;20.92;19.02;;;24.50;95.60;;;;;;5087110;28;19923;-88
2021/08/05 12:49:18;;;;;;;21.10;19.10;;;23.10;99.90;;;;;;5091654;28;20062;-89
2021/08/05 12:51:51;;;;;;;19.15;17.42;;;22.20;99.90;;;;;;5088641;28;20113;-91
2021/08/05 12:54:21;;;;;;;;;;;21.70;99.90;;;;;;5079114;28;20021;-90
2021/08/05 12:57:20;;;;;;;18.48;16.80;;;21.30;99.90;;;;;;5096165;28;19911;-90
2021/08/05 12:59:57;;;;;;;16.10;14.63;;;21.10;99.90;;;;;;5093985;28;20024;-91
2021/08/05 13:02:26;;;;;;;15.63;14.23;;;21.20;99.90;;;;;;5088301;28;20047;-92
2021/08/05 13:05:11;;;;;;;15.98;14.48;;;21.40;99.90;;;;;;5073877;28;20024;-91
2021/08/05 13:07:41;;;;;;;15.07;13.68;;;21.50;99.90;;;;;;5083350;28;20020;-91
2021/08/05 13:10:16;;;;;;;14.68;13.38;;;21.50;99.90;;;;;;5073982;28;20029;-91